sensor_id;sensor_type;location;lat;lon;timestamp;P1;durP1;ratioP1;P2;durP2;ratioP2
15171;SDS011;7686;52.184;9.280;2023-02-01T00:00:15;2.28;;;1.00;;
15171;SDS011;7686;52.184;9.280;2023-02-01T00:02:42;1.52;;;1.00;;
15171;SDS011;7686;52.184;9.280;2023-02-01T00:05:09;2.53;;;1.15;;
15171;SDS011;7686;52.184;9.280;2023-02-01T00:07:36;1.83;;;1.00;;
15171;SDS011;7686;52.184;9.280;2023-02-01T00:10:04;2.53;;;1.00;;
15171;SDS011;7686;52.184;9.280;2023-02-01T00:12:31;1.90;;;1.00;;
15171;SDS011;7686;52.184;9.280;2023-02-01T00:14:58;2.60;;;1.13;;
15171;SDS011;7686;52.184;9.280;2023-02-01T00:17:25;3.35;;;1.05;;
15171;SDS011;7686;52.184;9.280;2023-02-01T00:19:52;1.75;;;0.90;;
15171;SDS011;7686;52.184;9.280;2023-02-01T00:22:18;1.58;;;0.95;;
15171;SDS011;7686;52.184;9.280;2023-02-01T00:24:45;1.27;;;0.90;;
15171;SDS011;7686;52.184;9.280;2023-02-01T00:27:12;2.08;;;1.00;;
15171;SDS011;7686;52.184;9.280;2023-02-01T00:29:43;2.92;;;0.95;;
15171;SDS011;7686;52.184;9.280;2023-02-01T00:32:11;2.40;;;0.95;;
15171;SDS011;7686;52.184;9.280;2023-02-01T00:34:38;1.65;;;0.88;;
15171;SDS011;7686;52.184;9.280;2023-02-01T00:37:05;2.85;;;1.10;;
15171;SDS011;7686;52.184;9.280;2023-02-01T00:39:32;1.40;;;0.90;;
15171;SDS011;7686;52.184;9.280;2023-02-01T00:41:59;2.42;;;1.00;;
15171;SDS011;7686;52.184;9.280;2023-02-01T00:44:27;2.25;;;1.00;;
15171;SDS011;7686;52.184;9.280;2023-02-01T00:46:53;2.53;;;1.20;;
15171;SDS011;7686;52.184;9.280;2023-02-01T00:49:20;2.00;;;1.02;;
15171;SDS011;7686;52.184;9.280;2023-02-01T00:51:46;2.08;;;1.05;;
15171;SDS011;7686;52.184;9.280;2023-02-01T00:54:13;1.67;;;0.93;;
15171;SDS011;7686;52.184;9.280;2023-02-01T00:56:40;1.48;;;0.98;;
15171;SDS011;7686;52.184;9.280;2023-02-01T00:59:07;2.53;;;0.93;;
15171;SDS011;7686;52.184;9.280;2023-02-01T01:01:36;3.22;;;1.10;;
15171;SDS011;7686;52.184;9.280;2023-02-01T01:04:03;2.65;;;0.95;;
15171;SDS011;7686;52.184;9.280;2023-02-01T01:06:31;1.73;;;1.00;;
15171;SDS011;7686;52.184;9.280;2023-02-01T01:09:00;1.23;;;0.82;;
15171;SDS011;7686;52.184;9.280;2023-02-01T01:11:30;1.92;;;0.95;;
15171;SDS011;7686;52.184;9.280;2023-02-01T01:13:58;2.35;;;1.10;;
15171;SDS011;7686;52.184;9.280;2023-02-01T01:16:27;2.05;;;1.13;;
15171;SDS011;7686;52.184;9.280;2023-02-01T01:18:55;2.28;;;1.10;;
15171;SDS011;7686;52.184;9.280;2023-02-01T01:21:23;2.30;;;0.88;;
15171;SDS011;7686;52.184;9.280;2023-02-01T01:23:50;2.72;;;1.10;;
15171;SDS011;7686;52.184;9.280;2023-02-01T01:26:26;2.45;;;1.10;;
15171;SDS011;7686;52.184;9.280;2023-02-01T01:28:55;2.70;;;1.20;;
15171;SDS011;7686;52.184;9.280;2023-02-01T01:31:23;2.65;;;1.20;;
15171;SDS011;7686;52.184;9.280;2023-02-01T01:33:51;2.25;;;1.00;;
15171;SDS011;7686;52.184;9.280;2023-02-01T01:36:19;2.42;;;1.10;;
15171;SDS011;7686;52.184;9.280;2023-02-01T01:38:46;2.10;;;1.00;;
15171;SDS011;7686;52.184;9.280;2023-02-01T01:41:15;2.20;;;0.93;;
15171;SDS011;7686;52.184;9.280;2023-02-01T01:43:49;2.13;;;1.08;;
15171;SDS011;7686;52.184;9.280;2023-02-01T01:46:24;1.35;;;0.88;;
15171;SDS011;7686;52.184;9.280;2023-02-01T01:48:55;1.63;;;0.90;;
15171;SDS011;7686;52.184;9.280;2023-02-01T01:51:52;2.28;;;1.00;;
15171;SDS011;7686;52.184;9.280;2023-02-01T01:54:29;2.58;;;1.00;;
15171;SDS011;7686;52.184;9.280;2023-02-01T01:57:04;2.00;;;1.00;;
15171;SDS011;7686;52.184;9.280;2023-02-01T01:59:35;1.52;;;0.90;;
15171;SDS011;7686;52.184;9.280;2023-02-01T02:02:04;2.22;;;1.10;;
15171;SDS011;7686;52.184;9.280;2023-02-01T02:04:31;2.88;;;0.93;;
15171;SDS011;7686;52.184;9.280;2023-02-01T02:07:20;3.15;;;1.08;;
15171;SDS011;7686;52.184;9.280;2023-02-01T02:09:51;1.52;;;0.88;;
15171;SDS011;7686;52.184;9.280;2023-02-01T02:12:26;1.65;;;1.02;;
15171;SDS011;7686;52.184;9.280;2023-02-01T02:14:52;2.05;;;0.95;;
15171;SDS011;7686;52.184;9.280;2023-02-01T02:36:43;1.27;;;0.70;;
15171;SDS011;7686;52.184;9.280;2023-02-01T02:42:14;1.88;;;1.00;;
15171;SDS011;7686;52.184;9.280;2023-02-01T02:45:27;1.63;;;1.00;;
15171;SDS011;7686;52.184;9.280;2023-02-01T02:50:58;2.05;;;0.90;;
15171;SDS011;7686;52.184;9.280;2023-02-01T02:53:57;2.72;;;1.00;;
15171;SDS011;7686;52.184;9.280;2023-02-01T02:56:55;2.00;;;0.80;;
15171;SDS011;7686;52.184;9.280;2023-02-01T02:59:43;1.92;;;0.90;;
15171;SDS011;7686;52.184;9.280;2023-02-01T03:02:30;3.13;;;0.93;;
15171;SDS011;7686;52.184;9.280;2023-02-01T03:05:17;1.67;;;0.95;;
15171;SDS011;7686;52.184;9.280;2023-02-01T03:10:15;1.58;;;0.93;;
15171;SDS011;7686;52.184;9.280;2023-02-01T03:12:50;2.50;;;1.10;;
15171;SDS011;7686;52.184;9.280;2023-02-01T03:15:44;1.85;;;0.93;;
15171;SDS011;7686;52.184;9.280;2023-02-01T03:18:20;1.73;;;0.90;;
15171;SDS011;7686;52.184;9.280;2023-02-01T03:20:56;2.38;;;1.00;;
15171;SDS011;7686;52.184;9.280;2023-02-01T03:23:30;2.72;;;1.00;;
15171;SDS011;7686;52.184;9.280;2023-02-01T03:26:00;1.08;;;0.70;;
15171;SDS011;7686;52.184;9.280;2023-02-01T03:28:30;1.75;;;1.00;;
15171;SDS011;7686;52.184;9.280;2023-02-01T03:30:59;2.22;;;1.00;;
15171;SDS011;7686;52.184;9.280;2023-02-01T03:33:27;2.05;;;1.10;;
15171;SDS011;7686;52.184;9.280;2023-02-01T03:35:59;0.93;;;0.73;;
15171;SDS011;7686;52.184;9.280;2023-02-01T03:38:45;2.08;;;0.85;;
15171;SDS011;7686;52.184;9.280;2023-02-01T03:41:43;2.70;;;1.10;;
15171;SDS011;7686;52.184;9.280;2023-02-01T03:47:21;2.38;;;0.90;;
15171;SDS011;7686;52.184;9.280;2023-02-01T03:49:55;2.30;;;1.00;;
15171;SDS011;7686;52.184;9.280;2023-02-01T03:52:36;1.52;;;0.82;;
15171;SDS011;7686;52.184;9.280;2023-02-01T03:55:08;1.77;;;0.80;;
15171;SDS011;7686;52.184;9.280;2023-02-01T03:57:43;1.63;;;0.85;;
15171;SDS011;7686;52.184;9.280;2023-02-01T04:00:20;3.03;;;1.20;;
15171;SDS011;7686;52.184;9.280;2023-02-01T04:02:50;1.67;;;0.82;;
15171;SDS011;7686;52.184;9.280;2023-02-01T04:05:18;2.03;;;0.90;;
15171;SDS011;7686;52.184;9.280;2023-02-01T04:07:45;2.13;;;1.20;;
15171;SDS011;7686;52.184;9.280;2023-02-01T04:10:12;2.05;;;0.90;;
15171;SDS011;7686;52.184;9.280;2023-02-01T04:12:40;2.88;;;0.90;;
15171;SDS011;7686;52.184;9.280;2023-02-01T04:15:07;2.60;;;1.02;;
15171;SDS011;7686;52.184;9.280;2023-02-01T04:17:34;2.08;;;0.93;;
15171;SDS011;7686;52.184;9.280;2023-02-01T04:20:01;1.42;;;0.80;;
15171;SDS011;7686;52.184;9.280;2023-02-01T04:22:27;1.65;;;0.82;;
15171;SDS011;7686;52.184;9.280;2023-02-01T04:24:54;1.95;;;1.00;;
15171;SDS011;7686;52.184;9.280;2023-02-01T04:27:21;1.88;;;1.00;;
15171;SDS011;7686;52.184;9.280;2023-02-01T04:29:48;2.03;;;0.80;;
15171;SDS011;7686;52.184;9.280;2023-02-01T04:32:18;2.10;;;0.90;;
15171;SDS011;7686;52.184;9.280;2023-02-01T04:34:45;1.95;;;1.00;;
15171;SDS011;7686;52.184;9.280;2023-02-01T04:37:12;2.13;;;1.00;;
15171;SDS011;7686;52.184;9.280;2023-02-01T04:39:39;1.77;;;1.00;;
15171;SDS011;7686;52.184;9.280;2023-02-01T04:42:05;2.45;;;0.90;;
15171;SDS011;7686;52.184;9.280;2023-02-01T04:44:32;1.55;;;0.80;;
15171;SDS011;7686;52.184;9.280;2023-02-01T04:46:58;2.25;;;0.82;;
15171;SDS011;7686;52.184;9.280;2023-02-01T04:49:25;2.40;;;0.90;;
15171;SDS011;7686;52.184;9.280;2023-02-01T04:51:52;2.80;;;0.98;;
15171;SDS011;7686;52.184;9.280;2023-02-01T04:54:19;1.20;;;0.80;;
15171;SDS011;7686;52.184;9.280;2023-02-01T04:56:46;2.35;;;1.08;;
15171;SDS011;7686;52.184;9.280;2023-02-01T04:59:12;2.22;;;0.98;;
15171;SDS011;7686;52.184;9.280;2023-02-01T05:01:39;2.85;;;1.08;;
15171;SDS011;7686;52.184;9.280;2023-02-01T05:04:05;1.58;;;0.80;;
15171;SDS011;7686;52.184;9.280;2023-02-01T05:06:32;2.17;;;0.93;;
15171;SDS011;7686;52.184;9.280;2023-02-01T05:08:59;3.10;;;0.93;;
15171;SDS011;7686;52.184;9.280;2023-02-01T05:11:25;1.90;;;0.90;;
15171;SDS011;7686;52.184;9.280;2023-02-01T05:14:11;1.83;;;0.90;;
15171;SDS011;7686;52.184;9.280;2023-02-01T05:16:37;2.67;;;1.00;;
15171;SDS011;7686;52.184;9.280;2023-02-01T05:19:04;1.88;;;0.90;;
15171;SDS011;7686;52.184;9.280;2023-02-01T05:21:30;2.17;;;0.90;;
15171;SDS011;7686;52.184;9.280;2023-02-01T05:23:57;3.55;;;1.10;;
15171;SDS011;7686;52.184;9.280;2023-02-01T05:26:37;2.17;;;0.93;;
15171;SDS011;7686;52.184;9.280;2023-02-01T05:29:04;2.60;;;0.95;;
15171;SDS011;7686;52.184;9.280;2023-02-01T05:31:32;3.15;;;1.05;;
15171;SDS011;7686;52.184;9.280;2023-02-01T05:33:59;2.83;;;1.00;;
15171;SDS011;7686;52.184;9.280;2023-02-01T05:36:25;1.98;;;0.90;;
15171;SDS011;7686;52.184;9.280;2023-02-01T05:38:52;3.33;;;1.00;;
15171;SDS011;7686;52.184;9.280;2023-02-01T05:41:18;2.60;;;1.10;;
15171;SDS011;7686;52.184;9.280;2023-02-01T05:43:45;2.55;;;1.10;;
15171;SDS011;7686;52.184;9.280;2023-02-01T05:46:12;2.22;;;1.00;;
15171;SDS011;7686;52.184;9.280;2023-02-01T05:48:40;3.35;;;1.15;;
15171;SDS011;7686;52.184;9.280;2023-02-01T05:51:07;2.60;;;1.27;;
15171;SDS011;7686;52.184;9.280;2023-02-01T05:53:34;3.22;;;1.13;;
15171;SDS011;7686;52.184;9.280;2023-02-01T05:56:01;3.08;;;1.00;;
15171;SDS011;7686;52.184;9.280;2023-02-01T05:58:29;3.03;;;1.10;;
15171;SDS011;7686;52.184;9.280;2023-02-01T06:00:58;1.83;;;0.98;;
15171;SDS011;7686;52.184;9.280;2023-02-01T06:03:25;3.25;;;1.30;;
15171;SDS011;7686;52.184;9.280;2023-02-01T06:05:52;1.83;;;0.90;;
15171;SDS011;7686;52.184;9.280;2023-02-01T06:08:19;2.30;;;0.93;;
15171;SDS011;7686;52.184;9.280;2023-02-01T06:10:46;3.33;;;1.20;;
15171;SDS011;7686;52.184;9.280;2023-02-01T06:13:13;3.20;;;1.08;;
15171;SDS011;7686;52.184;9.280;2023-02-01T06:15:39;3.38;;;1.10;;
15171;SDS011;7686;52.184;9.280;2023-02-01T06:18:08;4.22;;;1.17;;
15171;SDS011;7686;52.184;9.280;2023-02-01T06:20:35;2.42;;;1.10;;
15171;SDS011;7686;52.184;9.280;2023-02-01T06:23:01;2.45;;;1.00;;
15171;SDS011;7686;52.184;9.280;2023-02-01T06:25:28;2.78;;;1.05;;
15171;SDS011;7686;52.184;9.280;2023-02-01T06:27:55;4.35;;;1.27;;
15171;SDS011;7686;52.184;9.280;2023-02-01T06:30:21;4.78;;;1.20;;
15171;SDS011;7686;52.184;9.280;2023-02-01T06:32:50;4.60;;;1.33;;
15171;SDS011;7686;52.184;9.280;2023-02-01T06:35:19;2.45;;;1.00;;
15171;SDS011;7686;52.184;9.280;2023-02-01T06:37:46;5.00;;;0.98;;
15171;SDS011;7686;52.184;9.280;2023-02-01T06:40:13;3.28;;;1.10;;
15171;SDS011;7686;52.184;9.280;2023-02-01T06:42:40;3.15;;;0.93;;
15171;SDS011;7686;52.184;9.280;2023-02-01T06:45:06;3.55;;;1.05;;
15171;SDS011;7686;52.184;9.280;2023-02-01T06:47:34;3.78;;;1.00;;
15171;SDS011;7686;52.184;9.280;2023-02-01T06:50:00;2.55;;;1.08;;
15171;SDS011;7686;52.184;9.280;2023-02-01T06:52:27;5.70;;;1.10;;
15171;SDS011;7686;52.184;9.280;2023-02-01T06:54:54;2.55;;;0.85;;
15171;SDS011;7686;52.184;9.280;2023-02-01T06:57:21;3.38;;;0.98;;
15171;SDS011;7686;52.184;9.280;2023-02-01T06:59:48;2.75;;;1.10;;
15171;SDS011;7686;52.184;9.280;2023-02-01T07:02:15;3.22;;;1.15;;
15171;SDS011;7686;52.184;9.280;2023-02-01T07:04:42;2.28;;;0.93;;
15171;SDS011;7686;52.184;9.280;2023-02-01T07:07:08;3.40;;;0.88;;
15171;SDS011;7686;52.184;9.280;2023-02-01T07:09:35;2.47;;;1.10;;
15171;SDS011;7686;52.184;9.280;2023-02-01T07:12:01;3.17;;;0.90;;
15171;SDS011;7686;52.184;9.280;2023-02-01T07:14:28;1.67;;;0.85;;
15171;SDS011;7686;52.184;9.280;2023-02-01T07:16:55;2.30;;;0.93;;
15171;SDS011;7686;52.184;9.280;2023-02-01T07:19:21;1.95;;;0.90;;
15171;SDS011;7686;52.184;9.280;2023-02-01T07:21:48;1.65;;;0.93;;
15171;SDS011;7686;52.184;9.280;2023-02-01T07:24:15;3.28;;;1.00;;
15171;SDS011;7686;52.184;9.280;2023-02-01T07:26:41;2.35;;;1.00;;
15171;SDS011;7686;52.184;9.280;2023-02-01T07:29:08;2.47;;;0.90;;
15171;SDS011;7686;52.184;9.280;2023-02-01T07:31:35;2.55;;;0.82;;
15171;SDS011;7686;52.184;9.280;2023-02-01T07:34:01;3.00;;;1.20;;
15171;SDS011;7686;52.184;9.280;2023-02-01T07:36:28;2.17;;;1.00;;
15171;SDS011;7686;52.184;9.280;2023-02-01T07:38:55;2.30;;;0.95;;
15171;SDS011;7686;52.184;9.280;2023-02-01T07:41:23;3.65;;;0.82;;
15171;SDS011;7686;52.184;9.280;2023-02-01T07:43:51;2.17;;;0.90;;
15171;SDS011;7686;52.184;9.280;2023-02-01T07:46:19;2.15;;;0.77;;
15171;SDS011;7686;52.184;9.280;2023-02-01T07:48:45;3.38;;;0.85;;
15171;SDS011;7686;52.184;9.280;2023-02-01T07:51:13;1.55;;;0.80;;
15171;SDS011;7686;52.184;9.280;2023-02-01T07:53:41;2.13;;;0.93;;
15171;SDS011;7686;52.184;9.280;2023-02-01T07:56:15;1.92;;;1.00;;
15171;SDS011;7686;52.184;9.280;2023-02-01T07:58:47;3.92;;;0.80;;
15171;SDS011;7686;52.184;9.280;2023-02-01T08:01:18;2.92;;;1.00;;
15171;SDS011;7686;52.184;9.280;2023-02-01T08:03:51;1.98;;;0.77;;
15171;SDS011;7686;52.184;9.280;2023-02-01T08:06:19;1.92;;;0.85;;
15171;SDS011;7686;52.184;9.280;2023-02-01T08:08:48;1.85;;;0.90;;
15171;SDS011;7686;52.184;9.280;2023-02-01T08:11:16;1.88;;;1.00;;
15171;SDS011;7686;52.184;9.280;2023-02-01T08:13:43;1.88;;;0.80;;
15171;SDS011;7686;52.184;9.280;2023-02-01T08:16:11;1.98;;;0.80;;
15171;SDS011;7686;52.184;9.280;2023-02-01T08:18:39;1.73;;;0.90;;
15171;SDS011;7686;52.184;9.280;2023-02-01T08:21:06;1.90;;;0.82;;
15171;SDS011;7686;52.184;9.280;2023-02-01T08:23:35;1.60;;;1.00;;
15171;SDS011;7686;52.184;9.280;2023-02-01T08:26:06;3.13;;;1.00;;
15171;SDS011;7686;52.184;9.280;2023-02-01T08:28:39;2.13;;;0.90;;
15171;SDS011;7686;52.184;9.280;2023-02-01T08:31:07;1.95;;;0.90;;
15171;SDS011;7686;52.184;9.280;2023-02-01T08:33:37;3.67;;;0.95;;
15171;SDS011;7686;52.184;9.280;2023-02-01T08:36:05;2.03;;;0.90;;
15171;SDS011;7686;52.184;9.280;2023-02-01T08:38:34;2.78;;;1.05;;
15171;SDS011;7686;52.184;9.280;2023-02-01T08:41:06;3.10;;;0.88;;
15171;SDS011;7686;52.184;9.280;2023-02-01T08:43:35;2.20;;;1.00;;
15171;SDS011;7686;52.184;9.280;2023-02-01T08:46:02;2.42;;;1.10;;
15171;SDS011;7686;52.184;9.280;2023-02-01T08:48:30;2.55;;;1.02;;
15171;SDS011;7686;52.184;9.280;2023-02-01T08:50:57;1.48;;;0.82;;
15171;SDS011;7686;52.184;9.280;2023-02-01T08:53:26;2.17;;;1.05;;
15171;SDS011;7686;52.184;9.280;2023-02-01T08:55:53;1.77;;;0.90;;
15171;SDS011;7686;52.184;9.280;2023-02-01T08:58:19;2.63;;;1.00;;
15171;SDS011;7686;52.184;9.280;2023-02-01T09:00:47;2.05;;;0.90;;
15171;SDS011;7686;52.184;9.280;2023-02-01T09:03:14;2.03;;;0.88;;
15171;SDS011;7686;52.184;9.280;2023-02-01T09:05:41;3.25;;;1.00;;
15171;SDS011;7686;52.184;9.280;2023-02-01T09:08:15;2.22;;;1.00;;
15171;SDS011;7686;52.184;9.280;2023-02-01T09:10:42;2.97;;;0.93;;
15171;SDS011;7686;52.184;9.280;2023-02-01T09:13:09;1.92;;;1.00;;
15171;SDS011;7686;52.184;9.280;2023-02-01T09:15:36;2.50;;;0.90;;
15171;SDS011;7686;52.184;9.280;2023-02-01T09:18:03;2.65;;;1.08;;
15171;SDS011;7686;52.184;9.280;2023-02-01T09:20:30;2.67;;;1.13;;
15171;SDS011;7686;52.184;9.280;2023-02-01T09:22:56;1.88;;;0.95;;
15171;SDS011;7686;52.184;9.280;2023-02-01T09:25:23;2.17;;;0.90;;
15171;SDS011;7686;52.184;9.280;2023-02-01T09:27:50;2.13;;;0.95;;
15171;SDS011;7686;52.184;9.280;2023-02-01T09:30:17;1.17;;;0.80;;
15171;SDS011;7686;52.184;9.280;2023-02-01T09:32:43;1.80;;;0.95;;
15171;SDS011;7686;52.184;9.280;2023-02-01T09:35:10;1.58;;;1.00;;
15171;SDS011;7686;52.184;9.280;2023-02-01T09:37:37;2.47;;;0.98;;
15171;SDS011;7686;52.184;9.280;2023-02-01T09:40:04;1.90;;;0.90;;
15171;SDS011;7686;52.184;9.280;2023-02-01T09:45:59;1.58;;;0.68;;
15171;SDS011;7686;52.184;9.280;2023-02-01T09:48:29;2.53;;;0.80;;
15171;SDS011;7686;52.184;9.280;2023-02-01T09:50:59;1.50;;;0.80;;
15171;SDS011;7686;52.184;9.280;2023-02-01T09:53:35;2.65;;;1.00;;
15171;SDS011;7686;52.184;9.280;2023-02-01T09:56:07;5.72;;;1.20;;
15171;SDS011;7686;52.184;9.280;2023-02-01T09:58:42;2.83;;;1.08;;
15171;SDS011;7686;52.184;9.280;2023-02-01T10:01:20;3.08;;;0.93;;
15171;SDS011;7686;52.184;9.280;2023-02-01T10:03:50;2.42;;;1.00;;
15171;SDS011;7686;52.184;9.280;2023-02-01T10:09:12;2.30;;;0.95;;
15171;SDS011;7686;52.184;9.280;2023-02-01T10:15:15;3.95;;;1.25;;
15171;SDS011;7686;52.184;9.280;2023-02-01T10:17:49;1.75;;;1.10;;
15171;SDS011;7686;52.184;9.280;2023-02-01T10:20:44;2.47;;;1.13;;
15171;SDS011;7686;52.184;9.280;2023-02-01T10:26:12;3.50;;;1.33;;
15171;SDS011;7686;52.184;9.280;2023-02-01T10:28:49;2.75;;;1.25;;
15171;SDS011;7686;52.184;9.280;2023-02-01T10:31:18;2.47;;;1.20;;
15171;SDS011;7686;52.184;9.280;2023-02-01T10:33:48;3.03;;;1.40;;
15171;SDS011;7686;52.184;9.280;2023-02-01T10:36:21;1.70;;;1.05;;
15171;SDS011;7686;52.184;9.280;2023-02-01T10:38:59;4.03;;;1.40;;
15171;SDS011;7686;52.184;9.280;2023-02-01T10:41:31;2.40;;;1.25;;
15171;SDS011;7686;52.184;9.280;2023-02-01T10:44:00;2.72;;;1.20;;
15171;SDS011;7686;52.184;9.280;2023-02-01T10:46:31;2.80;;;1.20;;
15171;SDS011;7686;52.184;9.280;2023-02-01T10:49:00;2.22;;;1.10;;
15171;SDS011;7686;52.184;9.280;2023-02-01T10:51:34;2.33;;;1.05;;
15171;SDS011;7686;52.184;9.280;2023-02-01T10:54:18;2.03;;;1.05;;
15171;SDS011;7686;52.184;9.280;2023-02-01T10:56:47;2.40;;;1.05;;
15171;SDS011;7686;52.184;9.280;2023-02-01T10:59:16;2.40;;;0.90;;
15171;SDS011;7686;52.184;9.280;2023-02-01T11:01:50;2.08;;;0.88;;
15171;SDS011;7686;52.184;9.280;2023-02-01T11:04:28;2.35;;;1.10;;
15171;SDS011;7686;52.184;9.280;2023-02-01T11:07:06;1.95;;;0.90;;
15171;SDS011;7686;52.184;9.280;2023-02-01T11:09:54;3.72;;;0.90;;
15171;SDS011;7686;52.184;9.280;2023-02-01T11:12:29;1.63;;;1.00;;
15171;SDS011;7686;52.184;9.280;2023-02-01T11:17:46;2.10;;;1.02;;
15171;SDS011;7686;52.184;9.280;2023-02-01T11:20:18;2.28;;;1.00;;
15171;SDS011;7686;52.184;9.280;2023-02-01T11:23:18;1.48;;;0.77;;
15171;SDS011;7686;52.184;9.280;2023-02-01T11:25:51;1.85;;;0.95;;
15171;SDS011;7686;52.184;9.280;2023-02-01T11:28:23;1.38;;;0.82;;
15171;SDS011;7686;52.184;9.280;2023-02-01T11:31:05;4.80;;;1.10;;
15171;SDS011;7686;52.184;9.280;2023-02-01T11:33:37;2.42;;;0.75;;
15171;SDS011;7686;52.184;9.280;2023-02-01T11:36:14;1.95;;;1.00;;
15171;SDS011;7686;52.184;9.280;2023-02-01T11:38:53;3.03;;;1.00;;
15171;SDS011;7686;52.184;9.280;2023-02-01T11:41:35;1.88;;;0.90;;
15171;SDS011;7686;52.184;9.280;2023-02-01T11:47:18;2.33;;;1.10;;
15171;SDS011;7686;52.184;9.280;2023-02-01T11:49:47;1.20;;;0.80;;
15171;SDS011;7686;52.184;9.280;2023-02-01T12:12:19;1.70;;;0.70;;
15171;SDS011;7686;52.184;9.280;2023-02-01T12:31:48;3.00;;;0.80;;
15171;SDS011;7686;52.184;9.280;2023-02-01T12:42:43;2.05;;;0.80;;
15171;SDS011;7686;52.184;9.280;2023-02-01T12:48:27;3.92;;;0.80;;
15171;SDS011;7686;52.184;9.280;2023-02-01T12:51:12;1.05;;;0.75;;
15171;SDS011;7686;52.184;9.280;2023-02-01T12:53:46;2.08;;;0.88;;
15171;SDS011;7686;52.184;9.280;2023-02-01T12:56:26;1.45;;;0.93;;
15171;SDS011;7686;52.184;9.280;2023-02-01T12:58:56;1.38;;;0.70;;
15171;SDS011;7686;52.184;9.280;2023-02-01T13:01:37;2.67;;;0.70;;
15171;SDS011;7686;52.184;9.280;2023-02-01T13:07:38;1.42;;;0.73;;
15171;SDS011;7686;52.184;9.280;2023-02-01T13:09:45;1.38;;;0.70;;
15171;SDS011;7686;52.184;9.280;2023-02-01T13:12:15;1.90;;;0.73;;
15171;SDS011;7686;52.184;9.280;2023-02-01T13:14:52;0.95;;;0.68;;
15171;SDS011;7686;52.184;9.280;2023-02-01T13:17:28;1.63;;;0.70;;
15171;SDS011;7686;52.184;9.280;2023-02-01T13:22:54;1.65;;;0.80;;
15171;SDS011;7686;52.184;9.280;2023-02-01T13:25:28;1.15;;;0.80;;
15171;SDS011;7686;52.184;9.280;2023-02-01T13:42:22;3.45;;;1.00;;
15171;SDS011;7686;52.184;9.280;2023-02-01T13:45:15;2.63;;;0.80;;
15171;SDS011;7686;52.184;9.280;2023-02-01T13:47:47;2.05;;;0.70;;
15171;SDS011;7686;52.184;9.280;2023-02-01T13:53:03;2.67;;;0.93;;
15171;SDS011;7686;52.184;9.280;2023-02-01T13:55:45;2.80;;;0.98;;
15171;SDS011;7686;52.184;9.280;2023-02-01T13:58:19;4.00;;;0.80;;
15171;SDS011;7686;52.184;9.280;2023-02-01T14:00:48;2.88;;;0.88;;
15171;SDS011;7686;52.184;9.280;2023-02-01T14:03:22;5.03;;;0.70;;
15171;SDS011;7686;52.184;9.280;2023-02-01T14:06:18;2.17;;;0.70;;
15171;SDS011;7686;52.184;9.280;2023-02-01T14:11:41;3.22;;;0.77;;
15171;SDS011;7686;52.184;9.280;2023-02-01T14:19:22;1.73;;;0.80;;
15171;SDS011;7686;52.184;9.280;2023-02-01T14:21:52;2.78;;;0.80;;
15171;SDS011;7686;52.184;9.280;2023-02-01T14:24:33;4.88;;;1.05;;
15171;SDS011;7686;52.184;9.280;2023-02-01T14:27:02;7.43;;;1.30;;
15171;SDS011;7686;52.184;9.280;2023-02-01T14:29:39;5.20;;;1.00;;
15171;SDS011;7686;52.184;9.280;2023-02-01T14:44:50;2.88;;;1.10;;
15171;SDS011;7686;52.184;9.280;2023-02-01T14:49:54;2.05;;;0.90;;
15171;SDS011;7686;52.184;9.280;2023-02-01T14:57:57;3.40;;;0.85;;
15171;SDS011;7686;52.184;9.280;2023-02-01T15:00:27;2.28;;;0.80;;
15171;SDS011;7686;52.184;9.280;2023-02-01T15:03:15;4.38;;;1.00;;
15171;SDS011;7686;52.184;9.280;2023-02-01T15:05:56;1.92;;;0.75;;
15171;SDS011;7686;52.184;9.280;2023-02-01T15:08:25;2.00;;;0.70;;
15171;SDS011;7686;52.184;9.280;2023-02-01T15:11:06;0.85;;;0.60;;
15171;SDS011;7686;52.184;9.280;2023-02-01T15:13:37;1.58;;;0.80;;
15171;SDS011;7686;52.184;9.280;2023-02-01T15:16:11;1.88;;;0.82;;
15171;SDS011;7686;52.184;9.280;2023-02-01T15:18:40;1.38;;;0.70;;
15171;SDS011;7686;52.184;9.280;2023-02-01T15:21:14;3.17;;;0.80;;
15171;SDS011;7686;52.184;9.280;2023-02-01T15:24:09;1.38;;;0.68;;
15171;SDS011;7686;52.184;9.280;2023-02-01T15:26:40;1.67;;;0.77;;
15171;SDS011;7686;52.184;9.280;2023-02-01T15:29:10;1.65;;;0.60;;
15171;SDS011;7686;52.184;9.280;2023-02-01T15:31:39;2.17;;;0.70;;
15171;SDS011;7686;52.184;9.280;2023-02-01T15:34:11;1.48;;;0.80;;
15171;SDS011;7686;52.184;9.280;2023-02-01T15:36:39;0.50;;;0.50;;
15171;SDS011;7686;52.184;9.280;2023-02-01T15:41:50;0.95;;;0.55;;
15171;SDS011;7686;52.184;9.280;2023-02-01T15:46:48;2.65;;;0.80;;
15171;SDS011;7686;52.184;9.280;2023-02-01T15:51:46;2.08;;;0.88;;
15171;SDS011;7686;52.184;9.280;2023-02-01T15:54:17;2.25;;;0.80;;
15171;SDS011;7686;52.184;9.280;2023-02-01T15:56:59;2.53;;;0.77;;
15171;SDS011;7686;52.184;9.280;2023-02-01T15:59:32;0.90;;;0.68;;
15171;SDS011;7686;52.184;9.280;2023-02-01T16:02:24;1.13;;;0.70;;
15171;SDS011;7686;52.184;9.280;2023-02-01T16:04:52;2.50;;;0.75;;
15171;SDS011;7686;52.184;9.280;2023-02-01T16:07:23;2.65;;;1.00;;
15171;SDS011;7686;52.184;9.280;2023-02-01T16:09:56;3.45;;;0.80;;
15171;SDS011;7686;52.184;9.280;2023-02-01T16:14:55;1.90;;;0.85;;
15171;SDS011;7686;52.184;9.280;2023-02-01T16:17:22;1.90;;;0.68;;
15171;SDS011;7686;52.184;9.280;2023-02-01T16:19:48;3.40;;;0.90;;
15171;SDS011;7686;52.184;9.280;2023-02-01T16:22:15;0.95;;;0.65;;
15171;SDS011;7686;52.184;9.280;2023-02-01T16:24:42;1.60;;;0.80;;
15171;SDS011;7686;52.184;9.280;2023-02-01T16:27:09;1.13;;;0.57;;
15171;SDS011;7686;52.184;9.280;2023-02-01T16:29:35;2.88;;;0.60;;
15171;SDS011;7686;52.184;9.280;2023-02-01T16:32:02;1.83;;;0.80;;
15171;SDS011;7686;52.184;9.280;2023-02-01T16:34:30;3.72;;;0.75;;
15171;SDS011;7686;52.184;9.280;2023-02-01T16:36:57;2.63;;;0.70;;
15171;SDS011;7686;52.184;9.280;2023-02-01T16:39:24;1.60;;;0.60;;
15171;SDS011;7686;52.184;9.280;2023-02-01T16:41:50;1.98;;;0.80;;
15171;SDS011;7686;52.184;9.280;2023-02-01T16:44:17;1.40;;;0.70;;
15171;SDS011;7686;52.184;9.280;2023-02-01T16:46:44;2.28;;;0.80;;
15171;SDS011;7686;52.184;9.280;2023-02-01T16:49:18;2.58;;;0.80;;
15171;SDS011;7686;52.184;9.280;2023-02-01T16:51:47;2.35;;;0.68;;
15171;SDS011;7686;52.184;9.280;2023-02-01T16:54:15;1.33;;;0.68;;
15171;SDS011;7686;52.184;9.280;2023-02-01T16:56:42;2.88;;;0.70;;
15171;SDS011;7686;52.184;9.280;2023-02-01T16:59:11;2.92;;;1.20;;
15171;SDS011;7686;52.184;9.280;2023-02-01T17:01:38;2.22;;;0.95;;
15171;SDS011;7686;52.184;9.280;2023-02-01T17:04:09;1.45;;;0.80;;
15171;SDS011;7686;52.184;9.280;2023-02-01T17:06:37;1.73;;;0.80;;
15171;SDS011;7686;52.184;9.280;2023-02-01T17:09:05;2.42;;;0.73;;
15171;SDS011;7686;52.184;9.280;2023-02-01T17:11:32;2.55;;;1.00;;
15171;SDS011;7686;52.184;9.280;2023-02-01T17:16:42;4.13;;;1.08;;
15171;SDS011;7686;52.184;9.280;2023-02-01T17:19:18;1.27;;;0.73;;
15171;SDS011;7686;52.184;9.280;2023-02-01T17:21:50;2.67;;;1.00;;
15171;SDS011;7686;52.184;9.280;2023-02-01T17:24:22;3.67;;;0.93;;
15171;SDS011;7686;52.184;9.280;2023-02-01T17:26:53;5.43;;;1.88;;
15171;SDS011;7686;52.184;9.280;2023-02-01T17:29:20;2.92;;;1.05;;
15171;SDS011;7686;52.184;9.280;2023-02-01T17:31:49;4.47;;;0.98;;
15171;SDS011;7686;52.184;9.280;2023-02-01T17:34:18;4.57;;;1.50;;
15171;SDS011;7686;52.184;9.280;2023-02-01T17:36:45;5.85;;;1.75;;
15171;SDS011;7686;52.184;9.280;2023-02-01T17:39:13;9.45;;;2.90;;
15171;SDS011;7686;52.184;9.280;2023-02-01T17:42:01;8.90;;;2.97;;
15171;SDS011;7686;52.184;9.280;2023-02-01T17:44:29;9.30;;;3.25;;
15171;SDS011;7686;52.184;9.280;2023-02-01T17:46:57;7.35;;;3.15;;
15171;SDS011;7686;52.184;9.280;2023-02-01T17:49:25;7.57;;;3.38;;
15171;SDS011;7686;52.184;9.280;2023-02-01T17:51:54;11.52;;;3.50;;
15171;SDS011;7686;52.184;9.280;2023-02-01T17:54:22;9.45;;;3.25;;
15171;SDS011;7686;52.184;9.280;2023-02-01T17:56:48;10.32;;;2.78;;
15171;SDS011;7686;52.184;9.280;2023-02-01T17:59:15;8.30;;;3.13;;
15171;SDS011;7686;52.184;9.280;2023-02-01T18:01:42;6.80;;;2.83;;
15171;SDS011;7686;52.184;9.280;2023-02-01T18:04:12;7.03;;;2.80;;